createdAt,value
2023-04-25T00:00:39.896Z,10.66
2023-04-25T00:03:06.813Z,10.49
2023-04-25T00:05:33.389Z,10.37
2023-04-25T00:08:00.067Z,10.42
2023-04-25T00:10:26.620Z,10.44
2023-04-25T00:12:53.130Z,10.32
2023-04-25T00:15:19.648Z,10.38
2023-04-25T00:17:49.717Z,10.31
2023-04-25T00:20:19.256Z,10.29
2023-04-25T00:22:48.404Z,10.40
2023-04-25T00:25:15.060Z,10.33
2023-04-25T00:27:42.761Z,10.09
2023-04-25T00:30:09.751Z,10.07
2023-04-25T00:32:36.282Z,10.14
2023-04-25T00:35:03.045Z,10.00
2023-04-25T00:37:29.553Z,10.21
2023-04-25T00:39:56.938Z,10.07
2023-04-25T00:42:23.445Z,9.96
2023-04-25T00:44:50.950Z,10.03
2023-04-25T00:47:20.807Z,9.85
2023-04-25T00:49:47.434Z,9.85
2023-04-25T00:52:13.993Z,9.83
2023-04-25T00:54:40.887Z,9.71
2023-04-25T00:57:07.510Z,9.65
2023-04-25T00:59:34.515Z,9.52
2023-04-25T01:02:01.569Z,9.61
2023-04-25T01:04:28.879Z,9.56
2023-04-25T01:06:55.450Z,9.52
2023-04-25T01:09:23.037Z,9.58
2023-04-25T01:11:52.849Z,9.49
2023-04-25T01:14:21.480Z,9.52
2023-04-25T01:16:48.002Z,9.60
2023-04-25T01:19:17.837Z,9.63
2023-04-25T01:21:44.726Z,9.71
2023-04-25T01:24:11.387Z,9.71
2023-04-25T01:26:38.921Z,9.74
2023-04-25T01:29:06.004Z,9.75
2023-04-25T01:31:33.438Z,9.75
2023-04-25T01:33:59.895Z,9.74
2023-04-25T01:36:26.380Z,9.76
2023-04-25T01:38:56.353Z,9.88
2023-04-25T01:41:26.011Z,9.85
2023-04-25T01:43:56.420Z,9.83
2023-04-25T01:46:26.082Z,9.84
2023-04-25T01:48:55.645Z,9.91
2023-04-25T01:51:26.655Z,9.88
2023-04-25T01:53:58.371Z,9.87
2023-04-25T01:56:25.976Z,9.73
2023-04-25T01:58:55.684Z,9.86
2023-04-25T02:01:23.971Z,9.80
2023-04-25T02:03:50.645Z,9.62
2023-04-25T02:06:17.305Z,9.59
2023-04-25T02:08:43.750Z,9.48
2023-04-25T02:11:10.216Z,9.49
2023-04-25T02:13:36.704Z,9.47
2023-04-25T02:16:03.323Z,9.48
2023-04-25T02:18:29.917Z,9.44
2023-04-25T02:20:56.466Z,9.37
2023-04-25T02:23:28.698Z,9.45
2023-04-25T02:25:58.404Z,9.27
2023-04-25T02:28:27.817Z,9.34
2023-04-25T02:30:58.495Z,9.49
2023-04-25T02:33:27.827Z,9.61
2023-04-25T02:35:54.473Z,9.54
2023-04-25T02:38:20.950Z,9.58
2023-04-25T02:40:47.386Z,9.60
2023-04-25T02:43:13.872Z,9.70
2023-04-25T02:45:40.564Z,9.67
2023-04-25T02:48:07.281Z,9.62
2023-04-25T02:50:33.802Z,9.67
2023-04-25T02:53:00.432Z,9.75
2023-04-25T02:55:29.934Z,9.98
2023-04-25T02:57:59.674Z,10.02
2023-04-25T03:00:29.333Z,10.09
2023-04-25T03:02:57.200Z,10.10
2023-04-25T03:05:23.748Z,9.99
2023-04-25T03:07:50.222Z,10.00
2023-04-25T03:10:16.664Z,10.02
2023-04-25T03:12:43.132Z,10.15
2023-04-25T03:15:09.961Z,10.19
2023-04-25T03:17:36.576Z,10.29
2023-04-25T03:20:05.014Z,10.20
2023-04-25T03:22:31.598Z,10.26
2023-04-25T03:25:00.949Z,10.34
2023-04-25T03:27:30.586Z,10.34
2023-04-25T03:29:59.380Z,10.35
2023-04-25T03:32:25.955Z,10.30
2023-04-25T03:34:52.736Z,10.27
2023-04-25T03:37:19.192Z,10.14
2023-04-25T03:39:45.698Z,10.13
2023-04-25T03:42:12.167Z,10.09
2023-04-25T03:44:38.671Z,10.14
2023-04-25T03:47:05.117Z,10.00
2023-04-25T03:49:33.778Z,9.79
2023-04-25T03:52:03.603Z,9.67
2023-04-25T03:54:30.740Z,9.55
2023-04-25T03:56:57.245Z,9.70
2023-04-25T03:59:23.800Z,9.73
2023-04-25T04:01:50.282Z,9.59
2023-04-25T04:04:17.058Z,9.73
2023-04-25T04:06:43.694Z,9.62
2023-04-25T04:09:12.010Z,9.55
2023-04-25T04:11:39.440Z,9.55
2023-04-25T04:14:07.209Z,9.37
2023-04-25T04:16:34.602Z,9.23
2023-04-25T04:19:04.354Z,9.25
2023-04-25T04:21:34.518Z,9.14
2023-04-25T04:24:04.800Z,9.09
2023-04-25T04:26:33.770Z,9.06
2023-04-25T04:29:04.317Z,8.98
2023-04-25T04:31:33.886Z,8.96
2023-04-25T04:34:03.369Z,8.95
2023-04-25T04:36:32.833Z,8.93
2023-04-25T04:38:59.236Z,9.00
2023-04-25T04:41:25.704Z,8.97
2023-04-25T04:43:54.241Z,8.95
2023-04-25T04:46:21.132Z,8.95
2023-04-25T04:48:47.685Z,9.02
2023-04-25T04:51:14.166Z,9.11
2023-04-25T04:53:40.751Z,9.09
2023-04-25T04:56:07.448Z,9.07
2023-04-25T04:58:34.094Z,9.02
2023-04-25T05:01:02.774Z,9.07
2023-04-25T05:03:32.039Z,9.14
2023-04-25T05:05:58.694Z,9.08
2023-04-25T05:08:25.177Z,9.15
2023-04-25T05:10:51.761Z,9.03
2023-04-25T05:13:18.222Z,9.18
2023-04-25T05:15:44.681Z,9.09
2023-04-25T05:18:11.298Z,9.20
2023-04-25T05:20:37.863Z,9.16
2023-04-25T05:23:05.067Z,9.17
2023-04-25T05:25:34.541Z,9.17
2023-04-25T05:28:03.849Z,9.15
2023-04-25T05:30:34.304Z,9.11
2023-04-25T05:33:03.893Z,9.06
2023-04-25T05:35:33.418Z,9.12
2023-04-25T05:38:02.465Z,9.07
2023-04-25T05:40:28.963Z,9.00
2023-04-25T05:42:55.483Z,8.90
2023-04-25T05:45:21.963Z,9.07
2023-04-25T05:47:48.496Z,9.04
2023-04-25T05:50:15.055Z,9.22
2023-04-25T05:52:41.525Z,9.22
2023-04-25T05:55:08.625Z,9.25
2023-04-25T05:57:35.321Z,9.33
2023-04-25T06:00:02.979Z,9.22
2023-04-25T06:02:32.112Z,9.29
2023-04-25T06:04:59.186Z,9.45
2023-04-25T06:07:26.282Z,9.40
2023-04-25T06:09:53.061Z,9.36
2023-04-25T06:12:19.869Z,9.16
2023-04-25T06:14:46.665Z,9.07
2023-04-25T06:17:15.907Z,9.11
2023-04-25T06:19:42.388Z,9.27
2023-04-25T06:22:09.009Z,9.40
2023-04-25T06:24:36.377Z,9.51
2023-04-25T06:27:06.113Z,9.51
2023-04-25T06:29:35.433Z,9.63
2023-04-25T06:32:03.141Z,9.67
2023-04-25T06:34:32.018Z,9.74
2023-04-25T06:36:58.489Z,9.89
2023-04-25T06:39:26.292Z,9.93
2023-04-25T06:41:52.788Z,9.87
2023-04-25T06:44:19.366Z,9.78
2023-04-25T06:46:48.442Z,9.43
2023-04-25T06:49:17.003Z,9.67
2023-04-25T06:51:46.588Z,9.95
2023-04-25T06:54:13.258Z,9.68
2023-04-25T06:56:39.885Z,9.62
2023-04-25T06:59:08.763Z,9.77
2023-04-25T07:01:36.313Z,9.89
2023-04-25T07:04:03.303Z,9.85
2023-04-25T07:06:32.030Z,9.91
2023-04-25T07:08:58.489Z,10.03
2023-04-25T07:11:25.021Z,10.13
2023-04-25T07:13:51.515Z,10.45
2023-04-25T07:16:18.226Z,10.52
2023-04-25T07:18:44.711Z,10.74
2023-04-25T07:21:11.258Z,10.89
2023-04-25T07:23:38.585Z,11.06
2023-04-25T07:26:05.232Z,10.93
2023-04-25T07:28:34.759Z,10.73
2023-04-25T07:31:05.171Z,10.62
2023-04-25T07:33:34.691Z,10.91
2023-04-25T07:36:04.372Z,11.32
2023-04-25T07:38:34.021Z,11.73
2023-04-25T07:41:03.799Z,12.28
2023-04-25T07:43:33.936Z,12.70
2023-04-25T07:46:03.800Z,13.02
2023-04-25T07:48:34.638Z,12.79
2023-04-25T07:51:06.382Z,12.25
2023-04-25T07:53:34.979Z,11.69
2023-04-25T07:56:03.166Z,11.58
2023-04-25T07:58:32.138Z,11.23
2023-04-25T08:00:58.975Z,11.00
2023-04-25T08:03:25.980Z,11.46
2023-04-25T08:05:53.019Z,11.72
2023-04-25T08:08:19.800Z,11.78
2023-04-25T08:10:46.359Z,12.27
2023-04-25T08:13:12.805Z,12.50
2023-04-25T08:15:39.319Z,12.61
2023-04-25T08:18:06.359Z,12.26
2023-04-25T08:20:32.908Z,12.20
2023-04-25T08:23:05.042Z,12.69
2023-04-25T08:25:32.752Z,13.20
2023-04-25T08:28:03.972Z,13.17
2023-04-25T08:30:33.440Z,13.26
2023-04-25T08:33:03.053Z,13.52
2023-04-25T08:35:32.335Z,13.53
2023-04-25T08:37:58.856Z,13.48
2023-04-25T08:40:30.692Z,13.67
2023-04-25T08:42:58.813Z,14.06
2023-04-25T08:45:28.870Z,13.61
2023-04-25T08:47:58.161Z,13.44
2023-04-25T08:50:25.929Z,13.34
2023-04-25T08:52:54.594Z,13.37
2023-04-25T08:55:22.138Z,13.19
2023-04-25T08:57:49.206Z,12.82
2023-04-25T09:00:15.923Z,12.79
2023-04-25T09:02:44.689Z,12.43
2023-04-25T09:05:14.759Z,12.29
2023-04-25T09:07:41.549Z,12.44
2023-04-25T09:10:08.420Z,12.79
2023-04-25T09:12:36.273Z,13.46
2023-04-25T09:15:11.172Z,14.40
2023-04-25T09:17:41.348Z,15.29
2023-04-25T09:20:10.351Z,15.93
2023-04-25T09:22:37.829Z,16.28
2023-04-25T09:25:15.633Z,17.02
2023-04-25T09:27:53.339Z,17.38
2023-04-25T09:30:20.024Z,17.46
2023-04-25T09:32:46.680Z,18.15
2023-04-25T09:35:25.871Z,18.41
2023-04-25T09:37:52.356Z,17.64
2023-04-25T09:40:19.395Z,16.24
2023-04-25T09:42:45.864Z,15.98
2023-04-25T09:45:16.091Z,16.15
2023-04-25T09:47:44.971Z,17.56
2023-04-25T09:50:16.913Z,19.21
2023-04-25T09:52:44.081Z,20.06
2023-04-25T09:55:10.757Z,19.15
2023-04-25T09:57:40.731Z,17.86
2023-04-25T10:00:12.030Z,16.99
2023-04-25T10:02:40.452Z,16.74
2023-04-25T10:05:08.928Z,17.58
2023-04-25T10:07:39.028Z,18.86
2023-04-25T10:10:07.005Z,19.08
2023-04-25T10:12:35.026Z,18.37
2023-04-25T10:15:02.754Z,16.90
2023-04-25T10:17:29.525Z,16.45
2023-04-25T10:19:56.527Z,17.95
2023-04-25T10:22:42.226Z,18.15
2023-04-25T10:25:10.011Z,17.38
2023-04-25T10:27:37.153Z,16.88
2023-04-25T10:30:14.005Z,16.96
2023-04-25T10:32:42.599Z,17.78
2023-04-25T10:35:36.223Z,19.18
2023-04-25T10:38:14.922Z,20.31
2023-04-25T10:40:41.498Z,21.22
2023-04-25T10:43:33.037Z,21.37
2023-04-25T10:46:17.447Z,22.50
2023-04-25T10:48:49.387Z,22.99
2023-04-25T10:51:54.408Z,22.41
2023-04-25T10:54:24.048Z,19.85
2023-04-25T10:56:51.812Z,18.92
2023-04-25T10:59:19.947Z,17.56
2023-04-25T11:01:48.158Z,16.69
2023-04-25T11:04:26.202Z,17.06
2023-04-25T11:07:04.538Z,17.66
2023-04-25T11:09:37.310Z,18.55
2023-04-25T11:12:04.995Z,19.30
2023-04-25T11:14:33.546Z,20.59
2023-04-25T11:17:04.869Z,20.99
2023-04-25T11:19:34.429Z,21.38
2023-04-25T11:22:04.585Z,21.12
2023-04-25T11:24:35.722Z,19.55
2023-04-25T11:27:04.052Z,18.60
2023-04-25T11:29:35.037Z,18.38
2023-04-25T11:32:04.970Z,17.97
2023-04-25T11:34:35.136Z,18.18
2023-04-25T11:37:05.195Z,19.29
2023-04-25T11:39:34.634Z,20.22
2023-04-25T11:42:08.133Z,21.09
2023-04-25T11:44:36.784Z,21.72
2023-04-25T11:47:03.307Z,20.79
2023-04-25T11:49:36.055Z,21.45
2023-04-25T11:52:02.616Z,21.61
2023-04-25T11:54:31.510Z,21.98
2023-04-25T11:56:58.349Z,22.51
2023-04-25T11:59:26.331Z,22.37
2023-04-25T12:01:53.465Z,21.85
2023-04-25T12:04:25.585Z,22.24
2023-04-25T12:06:56.620Z,22.72
2023-04-25T12:09:35.192Z,23.59
2023-04-25T12:12:05.671Z,24.27
2023-04-25T12:14:36.591Z,23.54
2023-04-25T12:17:09.010Z,23.39
2023-04-25T12:19:37.881Z,23.64
2023-04-25T12:22:05.013Z,23.98
2023-04-25T12:24:38.309Z,24.28
2023-04-25T12:27:09.041Z,24.18
2023-04-25T12:29:48.903Z,23.85
2023-04-25T12:32:17.651Z,24.49
2023-04-25T12:34:44.601Z,24.31
2023-04-25T12:37:11.451Z,24.59
2023-04-25T12:39:38.401Z,25.05
2023-04-25T12:42:06.889Z,24.04
2023-04-25T12:44:36.065Z,24.44
2023-04-25T12:47:04.929Z,24.39
2023-04-25T12:49:40.170Z,24.15
2023-04-25T12:52:06.773Z,23.05
2023-04-25T12:54:36.289Z,23.22
2023-04-25T12:57:06.945Z,22.70
2023-04-25T12:59:37.736Z,22.64
2023-04-25T13:02:07.211Z,23.37
2023-04-25T13:04:37.297Z,23.37
2023-04-25T13:07:07.684Z,23.47
2023-04-25T13:09:37.054Z,24.26
2023-04-25T13:12:08.563Z,24.12
2023-04-25T13:14:38.032Z,24.62
2023-04-25T13:17:07.376Z,25.03
2023-04-25T13:19:37.068Z,25.21
2023-04-25T13:22:06.419Z,25.31
2023-04-25T13:24:35.254Z,25.50
2023-04-25T13:27:04.833Z,25.10
2023-04-25T13:29:31.337Z,25.38
2023-04-25T13:31:57.816Z,23.71
2023-04-25T13:34:24.338Z,22.68
2023-04-25T13:36:50.789Z,21.58
2023-04-25T13:39:17.238Z,20.52
2023-04-25T13:41:43.675Z,21.36
2023-04-25T13:44:11.438Z,22.28
2023-04-25T13:49:12.686Z,22.80
2023-04-25T13:51:40.406Z,22.46
2023-04-25T13:54:07.027Z,22.36
2023-04-25T13:56:35.658Z,21.74
2023-04-25T13:59:05.014Z,21.28
2023-04-25T14:01:35.572Z,21.02
2023-04-25T14:04:05.396Z,21.60
2023-04-25T14:06:34.326Z,22.12
2023-04-25T14:09:04.511Z,22.08
2023-04-25T14:11:31.176Z,22.85
2023-04-25T14:13:57.732Z,23.43
2023-04-25T14:16:24.359Z,22.77
2023-04-25T14:18:51.038Z,22.96
2023-04-25T14:21:17.543Z,23.35
2023-04-25T14:23:44.036Z,23.89
2023-04-25T14:26:13.509Z,24.40
2023-04-25T14:28:40.158Z,24.45
2023-04-25T14:31:06.752Z,23.84
2023-04-25T14:33:36.025Z,23.68
2023-04-25T14:36:04.941Z,23.70
2023-04-25T14:38:31.423Z,24.06
2023-04-25T14:40:57.998Z,24.08
2023-04-25T14:43:24.495Z,23.86
2023-04-25T14:45:51.017Z,23.73
2023-04-25T14:48:20.523Z,23.62
2023-04-25T14:50:47.494Z,23.48
2023-04-25T14:53:14.032Z,23.71
2023-04-25T14:55:42.305Z,23.59
2023-04-25T14:58:08.783Z,23.29
2023-04-25T15:00:38.478Z,23.95
2023-04-25T15:03:08.686Z,23.26
2023-04-25T15:05:38.500Z,22.79
2023-04-25T15:08:07.781Z,22.06
2023-04-25T15:10:37.593Z,21.12
2023-04-25T15:13:07.365Z,20.74
2023-04-25T15:15:35.712Z,20.70
2023-04-25T15:18:02.252Z,20.74
2023-04-25T15:20:29.052Z,20.51
2023-04-25T15:22:56.209Z,21.25
2023-04-25T15:25:22.984Z,21.54
2023-04-25T15:27:52.528Z,21.94
2023-04-25T15:30:22.007Z,21.94
2023-04-25T15:32:48.679Z,21.96
2023-04-25T15:35:16.116Z,21.47
2023-04-25T15:37:43.210Z,21.26
2023-04-25T15:40:15.739Z,21.37
2023-04-25T15:42:47.795Z,21.13
2023-04-25T15:45:15.646Z,20.57
2023-04-25T15:47:42.989Z,19.95
2023-04-25T15:50:10.280Z,19.09
2023-04-25T15:52:37.535Z,18.76
2023-04-25T15:55:07.839Z,19.32
2023-04-25T15:57:37.736Z,19.52
2023-04-25T16:00:14.899Z,19.86
2023-04-25T16:02:42.930Z,19.24
2023-04-25T16:05:11.354Z,18.74
2023-04-25T16:07:39.492Z,18.36
2023-04-25T16:10:06.575Z,17.88
2023-04-25T16:12:35.189Z,17.60
2023-04-25T16:15:01.807Z,17.16
2023-04-25T16:17:30.006Z,17.32
2023-04-25T16:19:57.089Z,17.45
2023-04-25T16:22:23.591Z,17.53
2023-04-25T16:24:50.992Z,17.28
2023-04-25T16:27:17.607Z,17.28
2023-04-25T16:29:44.175Z,17.04
2023-04-25T16:32:11.052Z,17.38
2023-04-25T16:34:37.660Z,17.45
2023-04-25T16:37:08.470Z,17.24
2023-04-25T16:39:37.699Z,17.26
2023-04-25T16:42:07.720Z,17.30
2023-04-25T16:44:39.494Z,17.32
2023-04-25T16:47:06.480Z,17.18
2023-04-25T16:49:37.242Z,17.17
2023-04-25T16:52:05.817Z,17.09
2023-04-25T16:54:32.333Z,17.03
2023-04-25T16:56:59.892Z,17.08
2023-04-25T16:59:26.381Z,16.87
2023-04-25T17:01:52.981Z,16.82
2023-04-25T17:04:19.912Z,16.81
2023-04-25T17:06:47.026Z,16.73
2023-04-25T17:09:13.498Z,16.81
2023-04-25T17:11:39.993Z,16.39
2023-04-25T17:14:09.556Z,16.35
2023-04-25T17:16:37.512Z,16.30
2023-04-25T17:19:09.089Z,16.12
2023-04-25T17:22:14.389Z,16.19
2023-04-25T17:24:41.431Z,16.23
2023-04-25T17:27:08.408Z,16.19
2023-04-25T17:29:35.772Z,16.06
2023-04-25T17:32:06.719Z,15.97
2023-04-25T17:34:35.466Z,15.79
2023-04-25T17:37:01.956Z,15.66
2023-04-25T17:39:28.492Z,15.71
2023-04-25T17:41:55.433Z,15.58
2023-04-25T17:44:21.925Z,15.58
2023-04-25T17:46:48.682Z,15.53
2023-04-25T17:49:15.311Z,15.55
2023-04-25T17:51:41.793Z,15.43
2023-04-25T17:54:09.029Z,15.24
2023-04-25T17:56:39.581Z,15.18
2023-04-25T17:59:14.780Z,14.90
2023-04-25T18:01:45.565Z,15.09
2023-04-25T18:04:14.136Z,14.92
2023-04-25T18:06:41.497Z,14.92
2023-04-25T18:09:16.169Z,14.77
2023-04-25T18:11:46.588Z,14.80
2023-04-25T18:14:25.293Z,14.64
2023-04-25T18:16:55.234Z,14.53
2023-04-25T18:19:23.287Z,14.47
2023-04-25T18:21:53.216Z,14.47
2023-04-25T18:24:26.257Z,14.33
2023-04-25T18:26:54.979Z,14.35
2023-04-25T18:29:32.210Z,14.35
2023-04-25T18:32:00.103Z,14.29
2023-04-25T18:34:27.636Z,14.25
2023-04-25T18:36:55.629Z,14.23
2023-04-25T18:39:26.282Z,14.06
2023-04-25T18:41:58.803Z,14.04
2023-04-25T18:44:28.377Z,13.94
2023-04-25T18:46:55.110Z,13.86
2023-04-25T18:49:21.628Z,13.70
2023-04-25T18:51:49.031Z,13.58
2023-04-25T18:54:15.719Z,13.61
2023-04-25T18:56:42.229Z,13.44
2023-04-25T18:59:08.711Z,13.27
2023-04-25T19:01:36.085Z,13.21
2023-04-25T19:04:05.158Z,13.25
2023-04-25T19:06:33.549Z,13.20
2023-04-25T19:08:59.998Z,13.12
2023-04-25T19:11:26.892Z,13.09
2023-04-25T19:13:56.647Z,13.11
2023-04-25T19:16:23.849Z,13.06
2023-04-25T19:18:52.630Z,13.00
2023-04-25T19:21:19.544Z,12.96
2023-04-25T19:23:46.401Z,12.94
2023-04-25T19:26:13.264Z,12.93
2023-04-25T19:28:44.808Z,12.91
2023-04-25T19:31:11.874Z,12.82
2023-04-25T19:33:41.965Z,12.80
2023-04-25T19:36:11.048Z,12.73
2023-04-25T19:38:40.345Z,12.80
2023-04-25T19:41:08.350Z,12.60
2023-04-25T19:43:34.816Z,12.50
2023-04-25T19:46:01.271Z,12.49
2023-04-25T19:48:27.851Z,12.34
2023-04-25T19:50:54.396Z,12.40
2023-04-25T19:53:20.855Z,12.34
2023-04-25T19:55:47.878Z,12.22
2023-04-25T19:58:14.531Z,12.23
2023-04-25T20:00:40.980Z,12.16
2023-04-25T20:03:10.761Z,12.12
2023-04-25T20:05:40.358Z,12.01
2023-04-25T20:08:11.363Z,12.07
2023-04-25T20:10:41.817Z,12.03
2023-04-25T20:13:08.614Z,11.92
2023-04-25T20:15:35.058Z,11.91
2023-04-25T20:18:01.582Z,11.77
2023-04-25T20:20:28.506Z,11.71
2023-04-25T20:22:55.538Z,11.66
2023-04-25T20:25:22.371Z,11.59
2023-04-25T20:27:48.903Z,11.38
2023-04-25T20:30:15.639Z,11.48
2023-04-25T20:32:42.172Z,11.42
2023-04-25T20:35:10.192Z,11.45
2023-04-25T20:37:39.808Z,11.41
2023-04-25T20:40:09.830Z,11.42
2023-04-25T20:42:36.543Z,11.37
2023-04-25T20:45:08.046Z,11.40
2023-04-25T20:47:34.976Z,11.33
2023-04-25T20:50:03.890Z,11.30
2023-04-25T20:52:31.938Z,11.28
2023-04-25T20:54:58.985Z,11.16
2023-04-25T20:57:25.973Z,11.12
2023-04-25T20:59:52.976Z,11.10
2023-04-25T21:02:22.394Z,11.10
2023-04-25T21:04:48.895Z,11.05
2023-04-25T21:07:15.551Z,10.96
2023-04-25T21:09:45.649Z,11.00
2023-04-25T21:12:12.298Z,11.09
2023-04-25T21:14:40.210Z,11.17
2023-04-25T21:17:06.884Z,11.24
2023-04-25T21:19:33.938Z,11.08
2023-04-25T21:22:01.760Z,11.00
2023-04-25T21:24:28.271Z,10.92
2023-04-25T21:26:54.768Z,10.74
2023-04-25T21:29:21.279Z,10.61
2023-04-25T21:31:48.211Z,10.55
2023-04-25T21:34:14.786Z,10.52
2023-04-25T21:37:07.892Z,10.65
2023-04-25T21:39:34.905Z,10.70
2023-04-25T21:42:01.986Z,10.72
2023-04-25T21:44:30.264Z,10.61
2023-04-25T21:46:57.087Z,10.56
2023-04-25T21:49:29.197Z,10.51
2023-04-25T21:51:56.967Z,10.50
2023-04-25T21:54:23.464Z,10.36
2023-04-25T21:56:49.985Z,10.33
2023-04-25T21:59:16.480Z,10.41
2023-04-25T22:01:43.641Z,10.33
2023-04-25T22:04:11.650Z,10.32
2023-04-25T22:06:38.199Z,10.39
2023-04-25T22:09:05.301Z,10.52
2023-04-25T22:11:32.384Z,10.37
2023-04-25T22:13:58.893Z,10.34
2023-04-25T22:16:25.346Z,10.34
2023-04-25T22:18:53.259Z,10.24
2023-04-25T22:21:20.248Z,10.08
2023-04-25T22:23:46.835Z,10.09
2023-04-25T22:26:16.286Z,9.99
2023-04-25T22:28:43.468Z,9.89
2023-04-25T22:31:10.688Z,9.94
2023-04-25T22:33:37.377Z,9.85
2023-04-25T22:36:04.211Z,9.70
2023-04-25T22:38:30.751Z,9.69
2023-04-25T22:40:57.224Z,9.74
2023-04-25T22:43:24.043Z,9.71
2023-04-25T22:45:50.823Z,9.97
2023-04-25T22:48:17.358Z,10.13
2023-04-25T22:50:43.824Z,10.19
2023-04-25T22:53:10.376Z,10.05
2023-04-25T22:55:36.897Z,10.07
2023-04-25T22:58:04.547Z,9.99
2023-04-25T23:00:31.157Z,9.90
2023-04-25T23:02:58.213Z,9.84
2023-04-25T23:05:24.823Z,9.73
2023-04-25T23:07:51.302Z,9.49
2023-04-25T23:10:18.668Z,9.44
2023-04-25T23:12:45.866Z,9.27
2023-04-25T23:15:16.350Z,9.25
2023-04-25T23:17:43.509Z,9.18
2023-04-25T23:20:11.297Z,9.20
2023-04-25T23:22:38.836Z,9.06
2023-04-25T23:25:07.520Z,8.95
2023-04-25T23:27:34.002Z,9.08
2023-04-25T23:30:00.532Z,9.11
2023-04-25T23:32:27.155Z,9.13
2023-04-25T23:34:53.654Z,9.11
2023-04-25T23:37:20.143Z,8.96
2023-04-25T23:39:52.844Z,8.95
2023-04-25T23:42:20.341Z,8.87
2023-04-25T23:44:46.841Z,8.71
2023-04-25T23:47:14.324Z,8.65
2023-04-25T23:49:41.244Z,8.59
2023-04-25T23:52:07.844Z,8.49
2023-04-25T23:54:34.274Z,8.52
2023-04-25T23:57:00.857Z,8.45
2023-04-25T23:59:28.632Z,8.46
